createdAt,value
2018-07-04T00:00:22.861Z,30.00
2018-07-04T00:01:37.543Z,29.90
2018-07-04T00:02:52.018Z,29.90
2018-07-04T00:04:06.828Z,30.00
2018-07-04T00:05:21.388Z,29.90
2018-07-04T00:06:36.097Z,30.10
2018-07-04T00:07:50.861Z,30.10
2018-07-04T00:09:06.205Z,30.10
2018-07-04T00:10:21.028Z,30.00
2018-07-04T00:11:35.830Z,30.00
2018-07-04T00:12:50.663Z,30.00
2018-07-04T00:14:05.310Z,30.00
2018-07-04T00:15:19.930Z,30.00
2018-07-04T00:17:43.649Z,30.00
2018-07-04T00:18:58.271Z,30.00
2018-07-04T00:20:13.025Z,30.00
2018-07-04T00:21:27.561Z,30.00
2018-07-04T00:22:42.334Z,29.90
2018-07-04T00:23:56.922Z,30.00
2018-07-04T00:25:11.648Z,30.00
2018-07-04T00:26:26.392Z,30.00
2018-07-04T00:27:41.389Z,30.00
2018-07-04T00:28:56.120Z,30.30
2018-07-04T00:30:10.664Z,30.20
2018-07-04T00:31:25.336Z,30.10
2018-07-04T00:32:40.096Z,30.10
2018-07-04T00:33:54.670Z,30.20
2018-07-04T00:35:09.384Z,30.20
2018-07-04T00:36:24.239Z,30.20
2018-07-04T00:37:38.788Z,30.20
2018-07-04T00:38:53.480Z,30.20
2018-07-04T00:40:08.168Z,30.20
2018-07-04T00:41:22.940Z,30.40
2018-07-04T00:42:37.692Z,30.30
2018-07-04T00:43:52.414Z,30.30
2018-07-04T00:45:07.109Z,30.10
2018-07-04T00:46:21.797Z,30.00
2018-07-04T00:47:36.437Z,30.00
2018-07-04T00:48:51.332Z,30.30
2018-07-04T00:50:06.124Z,30.30
2018-07-04T00:51:20.957Z,30.30
2018-07-04T00:52:35.749Z,30.40
2018-07-04T00:53:50.573Z,30.20
2018-07-04T00:55:05.496Z,30.20
2018-07-04T00:56:20.100Z,30.20
2018-07-04T00:57:34.785Z,30.30
2018-07-04T00:58:49.644Z,30.40
2018-07-04T01:00:04.346Z,30.20
2018-07-04T01:01:19.021Z,30.10
2018-07-04T01:02:33.692Z,30.10
2018-07-04T01:03:48.194Z,30.10
2018-07-04T01:05:02.812Z,30.00
2018-07-04T01:06:17.489Z,30.10
2018-07-04T01:07:32.225Z,30.10
2018-07-04T01:08:46.827Z,30.00
2018-07-04T01:10:01.505Z,30.00
2018-07-04T01:11:16.272Z,30.10
2018-07-04T01:12:30.997Z,30.10
2018-07-04T01:13:45.888Z,30.00
2018-07-04T01:15:00.608Z,30.10
2018-07-04T01:16:15.282Z,30.10
2018-07-04T01:17:29.906Z,30.10
2018-07-04T01:18:44.599Z,30.20
2018-07-04T01:19:59.176Z,30.20
2018-07-04T01:21:14.991Z,30.20
2018-07-04T01:22:29.737Z,30.30
2018-07-04T01:23:44.604Z,30.40
2018-07-04T01:24:59.357Z,30.30
2018-07-04T01:26:14.052Z,30.40
2018-07-04T01:27:28.724Z,30.20
2018-07-04T01:28:49.104Z,30.30
2018-07-04T01:30:03.848Z,30.40
2018-07-04T01:31:18.555Z,30.30
2018-07-04T01:32:33.406Z,30.30
2018-07-04T01:33:48.176Z,30.30
2018-07-04T01:35:02.868Z,30.30
2018-07-04T01:36:17.620Z,30.30
2018-07-04T01:37:32.283Z,30.20
2018-07-04T01:38:47.017Z,30.00
2018-07-04T01:40:01.867Z,30.10
2018-07-04T01:41:16.545Z,30.20
2018-07-04T01:42:31.177Z,30.20
2018-07-04T01:43:45.965Z,30.30
2018-07-04T01:45:00.671Z,30.20
2018-07-04T01:46:15.477Z,30.30
2018-07-04T01:47:30.176Z,30.20
2018-07-04T01:48:44.869Z,30.20
2018-07-04T01:49:59.797Z,30.20
2018-07-04T01:51:14.687Z,30.10
2018-07-04T01:52:29.465Z,30.20
2018-07-04T01:53:44.079Z,30.20
2018-07-04T01:54:58.842Z,30.20
2018-07-04T01:56:13.583Z,30.10
2018-07-04T01:57:28.406Z,30.10
2018-07-04T01:58:43.118Z,30.10
2018-07-04T01:59:57.822Z,30.10
2018-07-04T02:01:12.554Z,30.00
2018-07-04T02:03:35.988Z,30.10
2018-07-04T02:04:50.668Z,30.10
2018-07-04T02:06:05.268Z,30.10
2018-07-04T02:07:20.068Z,30.00
2018-07-04T02:08:34.873Z,30.10
2018-07-04T02:09:49.472Z,30.10
2018-07-04T02:11:04.299Z,30.20
2018-07-04T02:12:19.053Z,30.40
2018-07-04T02:13:33.722Z,30.20
2018-07-04T02:14:48.362Z,30.30
2018-07-04T02:16:03.027Z,30.20
2018-07-04T02:17:17.618Z,30.40
2018-07-04T02:18:32.386Z,30.30
2018-07-04T02:19:47.139Z,30.10
2018-07-04T02:21:01.719Z,30.30
2018-07-04T02:22:16.392Z,30.20
2018-07-04T02:23:31.165Z,30.30
2018-07-04T02:24:45.890Z,30.20
2018-07-04T02:26:00.461Z,30.30
2018-07-04T02:27:15.313Z,30.20
2018-07-04T02:28:30.108Z,30.10
2018-07-04T02:29:44.778Z,30.30
2018-07-04T02:30:59.424Z,30.40
2018-07-04T02:32:14.247Z,30.40
2018-07-04T02:33:28.933Z,30.50
2018-07-04T02:34:43.556Z,30.20
2018-07-04T02:35:58.361Z,30.20
2018-07-04T02:37:13.165Z,30.50
2018-07-04T02:38:27.912Z,30.80
2018-07-04T02:39:42.588Z,30.50
2018-07-04T02:40:57.792Z,30.40
2018-07-04T02:42:12.448Z,30.30
2018-07-04T02:43:27.116Z,30.30
2018-07-04T02:44:41.697Z,30.20
2018-07-04T02:45:56.185Z,30.10
2018-07-04T02:47:16.300Z,30.10
2018-07-04T02:48:31.105Z,30.10
2018-07-04T02:49:45.679Z,30.20
2018-07-04T02:51:00.416Z,30.20
2018-07-04T02:52:14.917Z,30.10
2018-07-04T02:53:29.641Z,30.00
2018-07-04T02:54:44.328Z,30.00
2018-07-04T02:55:59.022Z,30.00
2018-07-04T02:57:13.766Z,30.00
2018-07-04T02:58:28.518Z,30.00
2018-07-04T02:59:43.317Z,30.00
2018-07-04T03:00:58.027Z,30.00
2018-07-04T03:02:12.637Z,30.10
2018-07-04T03:03:27.460Z,30.10
2018-07-04T03:04:42.292Z,30.10
2018-07-04T03:05:57.449Z,30.10
2018-07-04T03:07:11.977Z,30.10
2018-07-04T03:08:26.725Z,30.10
2018-07-04T03:09:41.521Z,30.30
2018-07-04T03:10:56.128Z,30.20
2018-07-04T03:12:10.878Z,30.20
2018-07-04T03:13:25.586Z,30.10
2018-07-04T03:14:40.284Z,30.20
2018-07-04T03:15:55.064Z,30.10
2018-07-04T03:17:09.809Z,30.10
2018-07-04T03:18:24.441Z,30.00
2018-07-04T03:19:39.208Z,30.10
2018-07-04T03:20:54.031Z,30.10
2018-07-04T03:22:08.813Z,30.10
2018-07-04T03:23:23.520Z,30.70
2018-07-04T03:24:38.277Z,30.10
2018-07-04T03:25:52.821Z,30.20
2018-07-04T03:27:07.577Z,30.20
2018-07-04T03:28:22.173Z,30.30
2018-07-04T03:29:36.912Z,30.30
2018-07-04T03:30:51.480Z,30.20
2018-07-04T03:32:06.054Z,30.20
2018-07-04T03:33:20.671Z,30.30
2018-07-04T03:34:35.631Z,30.30
2018-07-04T03:35:50.304Z,30.30
2018-07-04T03:37:04.970Z,30.40
2018-07-04T03:38:19.549Z,30.30
2018-07-04T03:39:34.117Z,30.30
2018-07-04T03:40:48.757Z,30.30
2018-07-04T03:42:03.454Z,30.20
2018-07-04T03:43:17.998Z,30.20
2018-07-04T03:44:32.585Z,30.30
2018-07-04T03:45:47.297Z,30.40
2018-07-04T03:47:02.043Z,30.40
2018-07-04T03:48:16.815Z,30.20
2018-07-04T03:49:31.589Z,30.20
2018-07-04T03:50:46.155Z,30.30
2018-07-04T03:52:01.421Z,30.50
2018-07-04T03:53:16.089Z,30.50
2018-07-04T03:54:31.057Z,30.50
2018-07-04T03:55:45.869Z,30.60
2018-07-04T03:57:00.549Z,30.80
2018-07-04T03:58:15.197Z,30.90
2018-07-04T03:59:29.882Z,31.00
2018-07-04T04:00:44.589Z,30.90
2018-07-04T04:01:59.163Z,31.10
2018-07-04T04:03:13.744Z,31.30
2018-07-04T04:04:28.432Z,31.50
2018-07-04T04:05:43.032Z,31.30
2018-07-04T04:06:57.762Z,31.40
2018-07-04T04:08:12.501Z,31.30
2018-07-04T04:09:27.221Z,31.10
2018-07-04T04:10:41.940Z,31.30
2018-07-04T04:11:56.508Z,31.10
2018-07-04T04:13:11.140Z,31.00
2018-07-04T04:14:25.956Z,31.00
2018-07-04T04:15:40.753Z,31.10
2018-07-04T04:16:55.400Z,31.30
2018-07-04T04:18:10.091Z,31.20
2018-07-04T04:19:31.660Z,31.50
2018-07-04T04:20:46.472Z,31.20
2018-07-04T04:22:01.277Z,31.00
2018-07-04T04:23:16.595Z,31.00
2018-07-04T04:24:31.337Z,31.00
2018-07-04T04:25:45.828Z,30.90
2018-07-04T04:27:00.925Z,31.00
2018-07-04T04:28:15.632Z,31.20
2018-07-04T04:29:30.353Z,31.10
2018-07-04T04:30:45.109Z,31.10
2018-07-04T04:31:59.817Z,31.00
2018-07-04T04:33:14.431Z,31.10
2018-07-04T04:34:29.181Z,31.50
2018-07-04T04:35:43.937Z,31.50
2018-07-04T04:36:58.685Z,31.40
2018-07-04T04:38:13.320Z,31.30
2018-07-04T04:39:28.106Z,31.30
2018-07-04T04:40:42.655Z,31.70
2018-07-04T04:41:57.208Z,31.40
2018-07-04T04:43:11.924Z,31.60
2018-07-04T04:44:26.805Z,31.80
2018-07-04T04:45:41.437Z,31.90
2018-07-04T04:46:56.048Z,32.00
2018-07-04T04:48:10.823Z,32.20
2018-07-04T04:49:25.679Z,32.10
2018-07-04T04:50:40.330Z,32.30
2018-07-04T04:51:54.945Z,32.10
2018-07-04T04:54:18.366Z,32.20
2018-07-04T04:55:33.193Z,32.20
2018-07-04T04:56:47.768Z,32.20
2018-07-04T04:58:02.258Z,32.20
2018-07-04T04:59:17.053Z,32.40
2018-07-04T05:00:31.563Z,32.20
2018-07-04T05:01:46.169Z,32.10
2018-07-04T05:03:00.870Z,32.50
2018-07-04T05:04:15.370Z,32.20
2018-07-04T05:05:29.985Z,32.60
2018-07-04T05:06:44.980Z,32.80
2018-07-04T05:07:59.612Z,32.90
2018-07-04T05:09:14.458Z,32.70
2018-07-04T05:10:29.185Z,32.40
2018-07-04T05:11:43.888Z,32.60
2018-07-04T05:12:58.612Z,33.00
2018-07-04T05:14:13.545Z,32.50
2018-07-04T05:16:36.932Z,32.80
2018-07-04T05:17:51.652Z,32.60
2018-07-04T05:19:06.285Z,32.70
2018-07-04T05:20:20.898Z,33.00
2018-07-04T05:21:35.713Z,33.00
2018-07-04T05:22:50.462Z,32.80
2018-07-04T05:24:05.197Z,32.90
2018-07-04T05:25:19.912Z,33.00
2018-07-04T05:26:34.741Z,32.90
2018-07-04T05:27:49.598Z,32.70
2018-07-04T05:29:04.360Z,32.90
2018-07-04T05:30:19.076Z,32.80
2018-07-04T05:31:33.886Z,32.60
2018-07-04T05:32:48.609Z,32.90
2018-07-04T05:34:03.278Z,32.90
2018-07-04T05:35:18.093Z,32.70
2018-07-04T05:36:32.886Z,32.70
2018-07-04T05:37:47.758Z,32.60
2018-07-04T05:39:02.537Z,32.70
2018-07-04T05:40:17.127Z,32.70
2018-07-04T05:41:31.986Z,32.60
2018-07-04T05:42:46.616Z,33.00
2018-07-04T05:44:01.279Z,32.80
2018-07-04T05:45:16.156Z,33.00
2018-07-04T05:46:32.625Z,32.90
2018-07-04T05:47:47.689Z,32.60
2018-07-04T05:49:02.296Z,32.50
2018-07-04T05:50:17.000Z,32.50
2018-07-04T05:51:31.846Z,33.20
2018-07-04T05:52:46.144Z,32.60
2018-07-04T05:54:00.802Z,32.50
2018-07-04T05:55:15.365Z,32.90
2018-07-04T05:56:30.139Z,32.60
2018-07-04T05:57:44.895Z,32.60
2018-07-04T05:58:59.617Z,32.90
2018-07-04T06:00:14.433Z,32.70
2018-07-04T06:01:29.169Z,32.80
2018-07-04T06:02:43.765Z,33.20
2018-07-04T06:03:58.446Z,33.10
2018-07-04T06:05:12.976Z,32.90
2018-07-04T06:06:27.688Z,33.00
2018-07-04T06:07:42.195Z,33.20
2018-07-04T06:08:56.914Z,33.40
2018-07-04T06:10:11.728Z,33.60
2018-07-04T06:11:26.345Z,34.00
2018-07-04T06:12:41.113Z,33.90
2018-07-04T06:13:55.772Z,34.00
2018-07-04T06:15:10.388Z,33.50
2018-07-04T06:16:24.940Z,33.40
2018-07-04T06:17:39.587Z,33.20
2018-07-04T06:18:54.383Z,33.50
2018-07-04T06:20:09.393Z,33.60
2018-07-04T06:21:24.142Z,33.60
2018-07-04T06:22:38.773Z,33.60
2018-07-04T06:23:53.528Z,33.90
2018-07-04T06:25:08.348Z,33.80
2018-07-04T06:26:23.051Z,33.70
2018-07-04T06:27:37.553Z,34.00
2018-07-04T06:28:52.325Z,33.70
2018-07-04T06:30:07.236Z,33.00
2018-07-04T06:31:21.857Z,33.70
2018-07-04T06:32:36.610Z,33.60
2018-07-04T06:33:51.187Z,33.80
2018-07-04T06:35:05.969Z,34.30
2018-07-04T06:38:25.768Z,33.80
2018-07-04T06:39:28.269Z,34.00
2018-07-04T06:40:30.614Z,33.90
2018-07-04T06:41:33.004Z,33.80
2018-07-04T06:42:36.053Z,33.50
2018-07-04T06:43:38.310Z,33.70
2018-07-04T06:44:40.594Z,34.00
2018-07-04T06:45:42.829Z,33.60
2018-07-04T06:46:45.312Z,33.50
2018-07-04T06:47:47.560Z,33.30
2018-07-04T06:48:49.840Z,33.30
2018-07-04T06:49:52.157Z,33.50
2018-07-04T06:50:54.461Z,33.20
2018-07-04T06:51:56.722Z,33.50
2018-07-04T06:52:58.956Z,33.60
2018-07-04T06:54:01.217Z,33.40
2018-07-04T06:55:03.465Z,33.40
2018-07-04T06:56:05.756Z,33.40
2018-07-04T06:57:08.129Z,33.60
2018-07-04T06:58:10.770Z,33.40
2018-07-04T06:59:13.033Z,33.70
2018-07-04T07:00:15.276Z,33.70
2018-07-04T07:01:17.820Z,33.70
2018-07-04T07:02:21.026Z,33.40
2018-07-04T07:03:35.727Z,33.30
2018-07-04T07:04:52.084Z,33.30
2018-07-04T07:06:06.952Z,33.60
2018-07-04T07:07:21.561Z,33.60
2018-07-04T07:08:36.568Z,33.60
2018-07-04T07:09:51.341Z,34.10
2018-07-04T07:11:06.049Z,33.70
2018-07-04T07:12:20.736Z,33.90
2018-07-04T07:13:35.530Z,34.00
2018-07-04T07:14:50.216Z,33.90
2018-07-04T07:16:05.278Z,34.00
2018-07-04T07:17:19.952Z,34.30
2018-07-04T07:18:34.742Z,34.00
2018-07-04T07:19:49.197Z,34.20
2018-07-04T07:21:03.649Z,34.10
2018-07-04T07:22:18.390Z,34.00
2018-07-04T07:23:33.547Z,34.00
2018-07-04T07:24:48.104Z,34.20
2018-07-04T07:26:03.061Z,34.30
2018-07-04T07:27:17.709Z,34.40
2018-07-04T07:28:32.538Z,34.40
2018-07-04T07:29:47.125Z,35.60
2018-07-04T07:31:01.877Z,34.70
2018-07-04T07:32:16.601Z,34.60
2018-07-04T07:33:31.404Z,34.40
2018-07-04T07:34:46.093Z,34.50
2018-07-04T07:36:01.054Z,34.60
2018-07-04T07:37:15.632Z,34.50
2018-07-04T07:38:30.178Z,34.40
2018-07-04T07:39:44.806Z,34.40
2018-07-04T07:40:59.384Z,34.70
2018-07-04T07:42:14.193Z,34.60
2018-07-04T07:43:28.941Z,34.30
2018-07-04T07:44:43.619Z,34.30
2018-07-04T07:45:58.278Z,34.10
2018-07-04T07:47:12.907Z,34.40
2018-07-04T07:48:27.373Z,34.10
2018-07-04T07:49:42.033Z,34.30
2018-07-04T07:50:56.808Z,34.20
2018-07-04T07:52:11.532Z,34.20
2018-07-04T07:53:26.095Z,34.40
2018-07-04T07:54:40.854Z,34.30
2018-07-04T07:55:55.589Z,34.00
2018-07-04T07:57:10.361Z,34.10
2018-07-04T07:58:25.002Z,34.30
2018-07-04T07:59:39.713Z,34.70
2018-07-04T08:02:03.017Z,34.00
2018-07-04T08:03:17.773Z,34.00
2018-07-04T08:04:32.456Z,34.10
2018-07-04T08:05:47.190Z,34.10
2018-07-04T08:07:01.799Z,33.90
2018-07-04T08:08:16.369Z,34.10
2018-07-04T08:09:30.918Z,34.00
2018-07-04T08:10:45.471Z,34.00
2018-07-04T08:12:00.222Z,34.20
2018-07-04T08:13:15.273Z,34.00
2018-07-04T08:14:29.963Z,34.30
2018-07-04T08:15:44.493Z,34.40
2018-07-04T08:16:59.157Z,34.60
2018-07-04T08:18:13.689Z,34.20
2018-07-04T08:19:28.324Z,34.20
2018-07-04T08:20:42.933Z,34.30
2018-07-04T08:21:57.552Z,34.20
2018-07-04T08:23:12.257Z,34.10
2018-07-04T08:24:26.890Z,34.30
2018-07-04T08:25:41.625Z,35.90
2018-07-04T08:28:05.775Z,37.10
2018-07-04T08:29:20.535Z,36.90
2018-07-04T08:30:35.098Z,38.20
2018-07-04T08:31:49.749Z,37.00
2018-07-04T08:33:04.392Z,36.50
2018-07-04T08:34:19.036Z,36.60
2018-07-04T08:35:33.717Z,37.20
2018-07-04T08:36:48.512Z,37.00
2018-07-04T08:38:03.170Z,36.90
2018-07-04T08:39:17.962Z,37.30
2018-07-04T08:40:32.621Z,37.50
2018-07-04T08:41:47.406Z,37.90
2018-07-04T08:43:02.062Z,37.80
2018-07-04T08:44:16.956Z,37.80
2018-07-04T08:46:40.437Z,38.10
2018-07-04T08:47:55.263Z,37.50
2018-07-04T08:49:09.821Z,37.00
2018-07-04T08:50:24.677Z,36.70
2018-07-04T08:51:39.364Z,36.60
2018-07-04T08:52:54.100Z,36.50
2018-07-04T08:54:08.871Z,36.50
2018-07-04T08:55:23.612Z,36.40
2018-07-04T08:56:38.300Z,36.50
2018-07-04T08:57:53.164Z,37.30
2018-07-04T08:59:07.936Z,36.60
2018-07-04T09:00:22.586Z,36.50
2018-07-04T09:01:37.177Z,36.30
2018-07-04T09:02:51.974Z,36.30
2018-07-04T09:04:06.810Z,35.90
2018-07-04T09:05:21.608Z,36.00
2018-07-04T09:06:36.797Z,36.70
2018-07-04T09:07:51.537Z,37.00
2018-07-04T09:09:06.317Z,35.90
2018-07-04T09:10:21.133Z,37.30
2018-07-04T09:11:36.053Z,37.70
2018-07-04T09:12:50.835Z,38.30
2018-07-04T09:14:05.795Z,37.60
2018-07-04T09:15:20.349Z,38.00
2018-07-04T09:16:35.069Z,38.00
2018-07-04T09:17:49.743Z,38.10
2018-07-04T09:19:04.500Z,38.90
2018-07-04T09:21:28.015Z,37.80
2018-07-04T09:22:42.605Z,38.10
2018-07-04T09:23:57.638Z,38.40
2018-07-04T09:25:12.393Z,38.80
2018-07-04T09:26:27.089Z,38.70
2018-07-04T09:27:41.844Z,38.50
2018-07-04T09:30:05.145Z,37.40
2018-07-04T09:31:19.877Z,38.20
2018-07-04T09:32:34.465Z,37.80
2018-07-04T09:33:49.145Z,37.60
2018-07-04T09:35:03.828Z,37.30
2018-07-04T09:36:18.687Z,36.90
2018-07-04T09:37:33.508Z,37.10
2018-07-04T09:38:48.207Z,38.20
2018-07-04T09:40:02.850Z,37.60
2018-07-04T09:41:17.620Z,38.40
2018-07-04T09:42:32.345Z,38.20
2018-07-04T09:43:47.135Z,38.20
2018-07-04T09:45:01.777Z,38.70
2018-07-04T09:46:16.591Z,39.20
2018-07-04T09:47:31.447Z,38.80
2018-07-04T09:48:46.205Z,38.10
2018-07-04T09:50:00.844Z,38.20
2018-07-04T09:51:15.537Z,37.70
2018-07-04T09:52:30.341Z,38.90
2018-07-04T09:53:45.272Z,38.80
2018-07-04T09:54:59.981Z,38.40
2018-07-04T09:56:14.687Z,38.60
2018-07-04T09:57:29.301Z,37.50
2018-07-04T09:58:44.155Z,38.50
2018-07-04T09:59:58.808Z,38.40
2018-07-04T10:01:19.075Z,37.30
2018-07-04T10:02:33.602Z,37.00
2018-07-04T10:03:48.690Z,38.00
2018-07-04T10:05:03.334Z,38.60
2018-07-04T10:06:18.076Z,38.30
2018-07-04T10:07:32.824Z,38.50
2018-07-04T10:08:47.472Z,38.60
2018-07-04T10:10:02.341Z,38.00
2018-07-04T10:11:17.217Z,37.60
2018-07-04T10:12:31.975Z,36.50
2018-07-04T10:13:46.839Z,36.40
2018-07-04T10:15:01.705Z,36.30
2018-07-04T10:16:16.481Z,37.30
2018-07-04T10:17:31.747Z,37.60
2018-07-04T10:18:46.421Z,38.10
2018-07-04T10:20:01.181Z,38.00
2018-07-04T10:21:15.848Z,38.30
2018-07-04T10:22:30.621Z,37.90
2018-07-04T10:23:45.387Z,38.30
2018-07-04T10:25:00.262Z,38.20
2018-07-04T10:26:15.071Z,37.80
2018-07-04T10:27:29.933Z,36.80
2018-07-04T10:28:44.764Z,36.60
2018-07-04T10:29:59.519Z,36.40
2018-07-04T10:31:14.435Z,36.40
2018-07-04T10:32:29.089Z,36.40
2018-07-04T10:33:44.011Z,36.60
2018-07-04T10:34:59.219Z,35.80
2018-07-04T10:36:13.860Z,35.60
2018-07-04T10:37:28.644Z,36.40
2018-07-04T10:38:43.355Z,36.30
2018-07-04T10:39:58.150Z,36.40
2018-07-04T10:41:12.768Z,36.40
2018-07-04T10:42:27.469Z,36.40
2018-07-04T10:43:42.224Z,36.40
2018-07-04T10:44:57.136Z,37.10
2018-07-04T10:46:11.764Z,36.60
2018-07-04T10:47:26.514Z,36.60
2018-07-04T10:48:41.171Z,36.50
2018-07-04T10:49:55.917Z,36.50
2018-07-04T10:51:10.988Z,36.10
2018-07-04T10:52:25.789Z,36.10
2018-07-04T10:53:40.433Z,35.90
2018-07-04T10:54:55.049Z,36.40
2018-07-04T10:56:09.819Z,36.60
2018-07-04T10:57:24.567Z,36.60
2018-07-04T10:58:39.316Z,36.60
2018-07-04T10:59:53.933Z,35.70
2018-07-04T11:01:08.725Z,35.50
2018-07-04T11:02:23.452Z,35.20
2018-07-04T11:03:38.304Z,35.30
2018-07-04T11:04:52.976Z,35.50
2018-07-04T11:06:07.911Z,36.10
2018-07-04T11:07:22.711Z,35.60
2018-07-04T11:08:37.612Z,35.30
2018-07-04T11:09:52.385Z,35.30
2018-07-04T11:11:07.430Z,35.20
2018-07-04T11:12:22.006Z,35.40
2018-07-04T11:13:36.780Z,35.60
2018-07-04T11:14:51.536Z,34.90
2018-07-04T11:16:06.286Z,34.70
2018-07-04T11:17:21.199Z,34.60
2018-07-04T11:19:38.657Z,34.20
2018-07-04T11:20:53.270Z,34.70
2018-07-04T11:22:07.883Z,34.40
2018-07-04T11:23:22.619Z,34.90
2018-07-04T11:24:37.656Z,34.40
2018-07-04T11:25:52.480Z,34.50
2018-07-04T11:27:07.249Z,34.30
2018-07-04T11:28:22.110Z,33.60
2018-07-04T11:29:36.889Z,34.00
2018-07-04T11:30:51.579Z,33.80
2018-07-04T11:32:06.654Z,34.10
2018-07-04T11:33:21.289Z,34.30
2018-07-04T11:34:35.868Z,33.80
2018-07-04T11:35:50.813Z,33.10
2018-07-04T11:37:05.513Z,32.60
2018-07-04T11:38:20.336Z,32.70
2018-07-04T11:39:35.198Z,32.30
2018-07-04T11:40:50.190Z,32.30
2018-07-04T11:42:04.942Z,31.90
2018-07-04T11:43:19.640Z,31.90
2018-07-04T11:44:34.414Z,32.00
2018-07-04T11:45:49.148Z,30.80
2018-07-04T11:46:51.481Z,30.30
2018-07-04T11:47:53.719Z,30.70
2018-07-04T11:48:56.032Z,31.00
2018-07-04T11:49:58.369Z,31.00
2018-07-04T11:51:00.922Z,31.50
2018-07-04T11:52:03.229Z,30.80
2018-07-04T11:53:05.518Z,31.20
2018-07-04T11:54:07.820Z,31.50
2018-07-04T11:55:10.095Z,31.70
2018-07-04T11:56:12.350Z,31.80
2018-07-04T11:57:14.577Z,31.80
2018-07-04T11:58:17.007Z,32.00
2018-07-04T11:59:19.307Z,31.60
2018-07-04T12:00:21.712Z,31.80
2018-07-04T12:01:24.139Z,31.80
2018-07-04T12:02:26.362Z,31.80
2018-07-04T12:03:28.600Z,31.40
2018-07-04T12:04:43.185Z,30.80
2018-07-04T12:05:58.368Z,31.50
2018-07-04T12:07:03.211Z,31.00
2018-07-04T12:08:05.548Z,31.00
2018-07-04T12:09:07.937Z,31.30
2018-07-04T12:10:10.364Z,32.10
2018-07-04T12:11:12.625Z,32.10
2018-07-04T12:12:14.890Z,32.20
2018-07-04T12:13:18.088Z,32.20
2018-07-04T12:14:20.340Z,31.90
2018-07-04T12:15:22.576Z,32.30
2018-07-04T12:17:27.352Z,32.10
2018-07-04T12:18:29.640Z,32.00
2018-07-04T12:19:31.933Z,32.20
2018-07-04T12:20:34.424Z,31.50
2018-07-04T12:21:36.713Z,31.20
2018-07-04T12:22:39.017Z,30.90
2018-07-04T12:23:41.365Z,31.50
2018-07-04T12:25:46.310Z,30.60
2018-07-04T12:26:48.564Z,30.40
2018-07-04T12:27:50.949Z,29.90
2018-07-04T12:28:53.284Z,30.00
2018-07-04T12:29:55.514Z,30.40
2018-07-04T12:30:57.859Z,29.90
2018-07-04T12:32:00.202Z,29.80
2018-07-04T12:33:03.207Z,29.70
2018-07-04T12:34:05.521Z,29.60
2018-07-04T12:35:07.933Z,29.80
2018-07-04T12:36:10.192Z,29.40
2018-07-04T12:37:12.437Z,29.70
2018-07-04T12:38:14.760Z,29.40
2018-07-04T12:39:17.014Z,29.30
2018-07-04T12:40:19.319Z,28.90
2018-07-04T12:41:21.755Z,29.30
2018-07-04T12:42:23.988Z,29.10
2018-07-04T12:44:28.843Z,29.10
2018-07-04T12:45:31.294Z,29.20
2018-07-04T12:46:33.529Z,29.30
2018-07-04T12:47:36.158Z,29.10
2018-07-04T12:48:38.498Z,29.80
2018-07-04T12:49:40.781Z,29.80
2018-07-04T12:50:43.031Z,29.90
2018-07-04T12:51:45.269Z,29.30
2018-07-04T12:52:47.556Z,28.90
2018-07-04T12:53:49.927Z,29.40
2018-07-04T12:55:06.411Z,29.50
2018-07-04T12:56:21.202Z,29.40
2018-07-04T12:57:35.895Z,29.20
2018-07-04T12:58:50.629Z,29.80
2018-07-04T13:00:05.085Z,29.50
2018-07-04T13:01:19.759Z,29.50
2018-07-04T13:02:34.570Z,29.60
2018-07-04T13:03:49.305Z,29.90
2018-07-04T13:05:03.964Z,30.00
2018-07-04T13:06:18.724Z,29.90
2018-07-04T13:07:33.384Z,30.00
2018-07-04T13:08:48.152Z,30.30
2018-07-04T13:10:02.663Z,30.00
2018-07-04T13:12:26.071Z,30.70
2018-07-04T13:13:40.750Z,31.00
2018-07-04T13:14:55.448Z,30.60
2018-07-04T13:16:10.308Z,30.70
2018-07-04T13:17:25.342Z,30.50
2018-07-04T13:18:39.945Z,30.60
2018-07-04T13:19:54.591Z,30.80
2018-07-04T13:21:09.226Z,30.90
2018-07-04T13:22:23.880Z,31.50
2018-07-04T13:23:38.927Z,32.00
2018-07-04T13:24:54.606Z,31.00
2018-07-04T13:26:09.284Z,31.20
2018-07-04T13:27:24.809Z,31.80
2018-07-04T13:28:39.700Z,31.80
2018-07-04T13:29:54.383Z,32.50
2018-07-04T13:31:09.273Z,32.10
2018-07-04T13:32:23.926Z,33.20
2018-07-04T13:33:38.677Z,32.60
2018-07-04T13:34:53.410Z,34.90
2018-07-04T13:36:08.109Z,33.80
2018-07-04T13:37:23.265Z,33.40
2018-07-04T13:38:38.001Z,32.90
2018-07-04T13:39:52.951Z,32.60
2018-07-04T13:41:07.497Z,32.10
2018-07-04T13:42:22.129Z,32.10
2018-07-04T13:43:36.956Z,32.60
2018-07-04T13:44:51.668Z,32.50
2018-07-04T13:46:06.510Z,32.60
2018-07-04T13:47:21.364Z,33.70
2018-07-04T13:48:35.901Z,33.50
2018-07-04T13:49:50.746Z,32.90
2018-07-04T13:51:05.451Z,32.50
2018-07-04T13:52:19.868Z,32.50
2018-07-04T13:53:34.637Z,33.20
2018-07-04T13:54:49.413Z,33.80
2018-07-04T13:56:04.128Z,34.10
2018-07-04T13:57:18.928Z,33.90
2018-07-04T13:58:33.601Z,33.80
2018-07-04T13:59:48.380Z,34.00
2018-07-04T14:01:03.024Z,33.10
2018-07-04T14:02:17.637Z,33.40
2018-07-04T14:03:32.444Z,33.60
2018-07-04T14:04:47.227Z,33.20
2018-07-04T14:06:02.034Z,33.40
2018-07-04T14:07:16.601Z,32.40
2018-07-04T14:08:31.378Z,31.90
2018-07-04T14:09:45.981Z,31.20
2018-07-04T14:11:00.994Z,31.50
2018-07-04T14:13:24.374Z,31.30
2018-07-04T14:14:39.049Z,30.80
2018-07-04T14:15:53.993Z,30.60
2018-07-04T14:17:08.558Z,30.10
2018-07-04T14:18:23.181Z,29.90
2018-07-04T14:19:37.950Z,30.60
2018-07-04T14:20:52.425Z,29.90
2018-07-04T14:22:07.121Z,30.10
2018-07-04T14:23:21.984Z,30.80
2018-07-04T14:24:37.590Z,30.00
2018-07-04T14:25:52.334Z,29.90
2018-07-04T14:27:07.052Z,29.90
2018-07-04T14:28:21.890Z,29.90
2018-07-04T14:29:36.590Z,29.90
2018-07-04T14:30:51.273Z,30.20
2018-07-04T14:32:06.199Z,30.00
2018-07-04T14:33:21.165Z,28.80
2018-07-04T14:34:35.911Z,29.20
2018-07-04T14:35:50.842Z,29.70
2018-07-04T14:37:05.618Z,29.70
2018-07-04T14:38:20.319Z,30.00
2018-07-04T14:39:35.122Z,29.20
2018-07-04T14:40:49.771Z,28.90
2018-07-04T14:42:04.561Z,29.20
2018-07-04T14:43:19.475Z,29.10
2018-07-04T14:44:34.173Z,28.70
2018-07-04T14:45:49.075Z,28.30
2018-07-04T14:47:03.861Z,27.60
2018-07-04T14:48:18.710Z,27.80
2018-07-04T14:49:33.961Z,27.90
2018-07-04T14:50:48.903Z,27.40
2018-07-04T14:52:03.635Z,27.40
2018-07-04T14:53:18.399Z,28.10
2018-07-04T14:54:32.856Z,28.50
2018-07-04T14:55:47.714Z,28.70
2018-07-04T14:57:02.582Z,29.20
2018-07-04T14:58:17.272Z,28.50
2018-07-04T14:59:32.111Z,28.30
2018-07-04T15:00:46.884Z,28.40
2018-07-04T15:02:01.376Z,28.10
2018-07-04T15:03:16.045Z,28.20
2018-07-04T15:04:30.724Z,27.90
2018-07-04T15:05:45.572Z,27.50
2018-07-04T15:07:01.928Z,27.50
2018-07-04T15:08:16.657Z,27.90
2018-07-04T15:09:31.292Z,27.90
2018-07-04T15:10:45.913Z,28.10
2018-07-04T15:13:46.228Z,28.10
2018-07-04T15:15:00.944Z,28.30
2018-07-04T15:16:15.601Z,28.70
2018-07-04T15:17:30.243Z,28.50
2018-07-04T15:18:45.082Z,28.60
2018-07-04T15:19:59.909Z,28.50
2018-07-04T15:21:14.514Z,28.70
2018-07-04T15:22:29.294Z,29.20
2018-07-04T15:23:44.006Z,29.20
2018-07-04T15:24:58.686Z,29.80
2018-07-04T15:26:13.369Z,29.70
2018-07-04T15:27:28.187Z,29.70
2018-07-04T15:28:42.818Z,29.80
2018-07-04T15:29:57.480Z,30.10
2018-07-04T15:31:12.029Z,30.10
2018-07-04T15:32:26.681Z,30.10
2018-07-04T15:33:41.359Z,30.20
2018-07-04T15:34:56.130Z,30.20
2018-07-04T15:42:52.064Z,30.40
2018-07-04T15:44:06.909Z,32.20
2018-07-04T15:45:21.540Z,32.00
2018-07-04T15:46:36.317Z,31.70
2018-07-04T15:47:51.269Z,32.40
2018-07-04T15:49:05.888Z,31.30
2018-07-04T15:50:20.593Z,30.90
2018-07-04T15:51:35.283Z,30.60
2018-07-04T15:52:50.192Z,30.80
2018-07-04T15:54:05.396Z,31.20
2018-07-04T15:55:20.128Z,31.00
2018-07-04T15:56:34.826Z,30.90
2018-07-04T15:57:49.620Z,31.00
2018-07-04T15:59:04.381Z,31.60
2018-07-04T16:00:19.222Z,31.60
2018-07-04T16:01:34.096Z,31.90
2018-07-04T16:02:48.764Z,31.70
2018-07-04T16:04:03.536Z,31.50
2018-07-04T16:05:18.282Z,31.60
2018-07-04T16:06:32.998Z,31.30
2018-07-04T16:07:47.678Z,31.10
2018-07-04T16:09:02.818Z,31.60
2018-07-04T16:10:17.856Z,31.60
2018-07-04T16:11:32.652Z,31.20
2018-07-04T16:12:47.334Z,31.90